createdAt,value
2023-01-20T00:01:49.691Z,1.40
2023-01-20T00:04:19.000Z,1.38
2023-01-20T00:06:46.717Z,1.45
2023-01-20T00:09:15.555Z,1.40
2023-01-20T00:11:45.454Z,1.50
2023-01-20T00:14:13.197Z,1.38
2023-01-20T00:16:41.034Z,1.15
2023-01-20T00:19:09.536Z,1.42
2023-01-20T00:21:37.459Z,1.60
2023-01-20T00:24:05.933Z,1.30
2023-01-20T00:26:33.652Z,1.40
2023-01-20T00:29:02.659Z,1.25
2023-01-20T00:31:31.374Z,1.30
2023-01-20T00:34:00.224Z,1.40
2023-01-20T00:36:28.545Z,1.33
2023-01-20T00:38:56.225Z,1.25
2023-01-20T00:41:24.111Z,1.35
2023-01-20T00:43:51.763Z,1.30
2023-01-20T00:46:22.849Z,1.52
2023-01-20T00:48:50.620Z,1.40
2023-01-20T00:51:18.438Z,1.30
2023-01-20T00:53:46.185Z,1.48
2023-01-20T00:56:13.916Z,1.40
2023-01-20T00:58:43.616Z,1.40
2023-01-20T01:01:11.402Z,1.45
2023-01-20T01:03:40.511Z,1.00
2023-01-20T01:06:09.695Z,1.02
2023-01-20T01:08:37.509Z,1.17
2023-01-20T01:11:05.366Z,1.25
2023-01-20T01:13:33.259Z,1.30
2023-01-20T01:16:01.075Z,1.38
2023-01-20T01:18:28.862Z,1.20
2023-01-20T01:20:57.970Z,1.33
2023-01-20T01:23:25.715Z,1.63
2023-01-20T01:25:53.398Z,1.38
2023-01-20T01:28:21.047Z,1.40
2023-01-20T01:30:48.784Z,1.23
2023-01-20T01:33:16.496Z,1.50
2023-01-20T01:35:44.203Z,1.27
2023-01-20T01:38:13.202Z,1.40
2023-01-20T01:40:40.859Z,1.20
2023-01-20T01:43:14.141Z,1.33
2023-01-20T01:45:41.842Z,1.40
2023-01-20T01:48:10.567Z,1.30
2023-01-20T01:50:40.393Z,1.25
2023-01-20T01:53:08.212Z,1.30
2023-01-20T01:55:40.609Z,1.40
2023-01-20T01:58:08.325Z,1.27
2023-01-20T02:00:36.024Z,1.23
2023-01-20T02:03:03.688Z,1.42
2023-01-20T02:05:31.354Z,1.35
2023-01-20T02:07:59.057Z,1.33
2023-01-20T02:10:26.845Z,1.40
2023-01-20T02:12:55.898Z,1.25
2023-01-20T02:15:25.616Z,1.77
2023-01-20T02:18:03.654Z,1.38
2023-01-20T02:20:51.225Z,1.65
2023-01-20T02:23:24.244Z,1.13
2023-01-20T02:26:06.872Z,1.40
2023-01-20T02:28:50.827Z,1.48
2023-01-20T02:31:26.566Z,1.20
2023-01-20T02:33:57.250Z,1.40
2023-01-20T02:36:28.456Z,1.48
2023-01-20T02:38:58.172Z,1.30
2023-01-20T02:41:28.364Z,1.30
2023-01-20T02:43:58.687Z,1.30
2023-01-20T02:46:27.530Z,1.30
2023-01-20T02:48:59.405Z,1.27
2023-01-20T02:51:28.079Z,1.23
2023-01-20T02:53:59.179Z,1.20
2023-01-20T02:56:27.979Z,1.40
2023-01-20T02:58:57.398Z,1.60
2023-01-20T03:01:26.166Z,1.27
2023-01-20T03:03:54.868Z,1.23
2023-01-20T03:06:25.500Z,1.35
2023-01-20T03:08:54.134Z,1.45
2023-01-20T03:11:21.816Z,1.30
2023-01-20T03:13:51.250Z,1.35
2023-01-20T03:16:19.871Z,1.25
2023-01-20T03:18:47.619Z,1.33
2023-01-20T03:21:15.341Z,1.38
2023-01-20T03:23:45.820Z,1.40
2023-01-20T03:26:14.651Z,1.50
2023-01-20T03:28:42.428Z,1.50
2023-01-20T03:31:14.262Z,1.60
2023-01-20T03:33:42.002Z,1.20
2023-01-20T03:36:10.055Z,1.40
2023-01-20T03:38:37.713Z,1.40
2023-01-20T03:41:08.831Z,1.60
2023-01-20T03:43:40.199Z,1.30
2023-01-20T03:46:10.580Z,1.40
2023-01-20T03:48:40.656Z,1.20
2023-01-20T03:51:10.806Z,1.23
2023-01-20T03:53:45.307Z,1.55
2023-01-20T03:56:19.116Z,1.50
2023-01-20T03:58:47.972Z,1.90
2023-01-20T04:01:18.604Z,1.75
2023-01-20T04:03:47.436Z,1.90
2023-01-20T04:06:15.388Z,1.80
2023-01-20T04:08:45.242Z,1.67
2023-01-20T04:11:12.918Z,1.83
2023-01-20T04:13:41.918Z,1.77
2023-01-20T04:16:11.302Z,1.70
2023-01-20T04:18:41.638Z,1.58
2023-01-20T04:21:10.745Z,1.67
2023-01-20T04:23:40.419Z,1.80
2023-01-20T04:26:08.090Z,2.00
2023-01-20T04:28:35.928Z,2.00
2023-01-20T04:31:05.158Z,2.10
2023-01-20T04:33:32.899Z,1.88
2023-01-20T04:36:00.596Z,2.00
2023-01-20T04:38:28.305Z,2.00
2023-01-20T04:40:55.987Z,2.03
2023-01-20T04:43:23.656Z,1.55
2023-01-20T04:45:51.587Z,1.85
2023-01-20T04:48:20.555Z,1.85
2023-01-20T04:50:48.236Z,1.92
2023-01-20T04:53:19.023Z,2.22
2023-01-20T04:55:46.870Z,2.00
2023-01-20T04:58:14.531Z,1.90
2023-01-20T05:00:43.706Z,1.67
2023-01-20T05:03:11.632Z,2.10
2023-01-20T05:05:40.749Z,2.13
2023-01-20T05:08:08.442Z,2.10
2023-01-20T05:10:36.225Z,2.30
2023-01-20T05:13:03.926Z,2.00
2023-01-20T05:15:31.590Z,2.00
2023-01-20T05:17:59.298Z,2.17
2023-01-20T05:20:26.990Z,1.95
2023-01-20T05:22:56.007Z,2.20
2023-01-20T05:25:23.655Z,2.30
2023-01-20T05:27:51.347Z,1.90
2023-01-20T05:30:19.221Z,1.90
2023-01-20T05:32:46.944Z,1.83
2023-01-20T05:35:14.844Z,1.92
2023-01-20T05:37:42.624Z,2.22
2023-01-20T05:40:12.822Z,2.20
2023-01-20T05:42:40.584Z,2.00
2023-01-20T05:45:09.876Z,2.13
2023-01-20T05:47:37.532Z,2.03
2023-01-20T05:50:05.555Z,2.05
2023-01-20T05:52:33.239Z,1.90
2023-01-20T05:55:00.961Z,1.80
2023-01-20T05:57:29.947Z,2.22
2023-01-20T05:59:57.636Z,2.10
2023-01-20T06:02:25.385Z,2.30
2023-01-20T06:04:53.063Z,2.10
2023-01-20T06:07:20.734Z,2.33
2023-01-20T06:09:48.389Z,2.17
2023-01-20T06:12:16.171Z,2.20
2023-01-20T06:14:45.203Z,2.15
2023-01-20T06:17:12.873Z,2.00
2023-01-20T06:19:41.090Z,1.95
2023-01-20T06:22:09.305Z,2.08
2023-01-20T06:24:52.034Z,2.10
2023-01-20T06:27:19.816Z,2.20
2023-01-20T06:29:50.709Z,2.25
2023-01-20T06:32:18.374Z,2.25
2023-01-20T06:34:46.074Z,2.20
2023-01-20T06:37:13.770Z,2.03
2023-01-20T06:39:41.443Z,1.92
2023-01-20T06:42:09.928Z,2.00
2023-01-20T06:44:38.770Z,2.25
2023-01-20T06:47:07.825Z,2.22
2023-01-20T06:49:35.819Z,2.00
2023-01-20T06:52:03.504Z,2.10
2023-01-20T06:54:31.202Z,1.80
2023-01-20T06:56:58.895Z,2.15
2023-01-20T06:59:26.566Z,1.90
2023-01-20T07:01:54.418Z,2.10
2023-01-20T07:04:23.538Z,2.28
2023-01-20T07:06:51.227Z,2.42
2023-01-20T07:09:18.929Z,2.00
2023-01-20T07:11:46.623Z,2.13
2023-01-20T07:14:14.330Z,2.40
2023-01-20T07:16:42.118Z,2.20
2023-01-20T07:19:09.798Z,2.40
2023-01-20T07:21:38.838Z,2.20
2023-01-20T07:24:07.298Z,2.10
2023-01-20T07:26:36.293Z,2.13
2023-01-20T07:29:03.993Z,2.25
2023-01-20T07:31:32.187Z,2.10
2023-01-20T07:34:00.245Z,2.35
2023-01-20T07:36:27.972Z,2.00
2023-01-20T07:38:56.994Z,2.03
2023-01-20T07:41:24.670Z,2.10
2023-01-20T07:43:53.469Z,2.25
2023-01-20T07:46:21.818Z,2.10
2023-01-20T07:48:49.579Z,2.20
2023-01-20T07:51:17.499Z,2.10
2023-01-20T07:53:46.683Z,2.40
2023-01-20T07:56:17.013Z,2.25
2023-01-20T07:58:45.163Z,2.33
2023-01-20T08:01:14.035Z,2.25
2023-01-20T08:03:41.948Z,2.33
2023-01-20T08:06:11.608Z,2.40
2023-01-20T08:08:39.475Z,2.50
2023-01-20T08:11:07.830Z,2.60
2023-01-20T08:13:36.825Z,2.40
2023-01-20T08:16:05.678Z,2.45
2023-01-20T08:18:33.845Z,2.20
2023-01-20T08:21:01.706Z,2.28
2023-01-20T08:23:29.399Z,2.22
2023-01-20T08:25:59.777Z,2.33
2023-01-20T08:28:28.183Z,2.20
2023-01-20T08:31:03.329Z,2.28
2023-01-20T08:33:31.131Z,2.15
2023-01-20T08:36:04.957Z,2.10
2023-01-20T08:38:32.794Z,2.30
2023-01-20T08:41:00.537Z,2.00
2023-01-20T08:43:28.315Z,2.10
2023-01-20T08:46:01.040Z,2.20
2023-01-20T08:48:29.125Z,2.20
2023-01-20T08:50:56.814Z,1.98
2023-01-20T08:53:24.522Z,2.20
2023-01-20T08:55:56.824Z,2.25
2023-01-20T08:58:25.487Z,1.98
2023-01-20T09:00:53.429Z,2.00
2023-01-20T09:03:22.492Z,2.30
2023-01-20T09:05:50.211Z,2.00
2023-01-20T09:08:18.184Z,1.92
2023-01-20T09:10:46.179Z,2.15
2023-01-20T09:13:13.854Z,2.20
2023-01-20T09:15:41.588Z,2.10
2023-01-20T09:18:09.264Z,2.22
2023-01-20T09:20:38.301Z,2.00
2023-01-20T09:23:06.012Z,1.73
2023-01-20T09:25:33.827Z,1.88
2023-01-20T09:28:01.804Z,1.70
2023-01-20T09:30:29.495Z,1.92
2023-01-20T09:32:59.379Z,1.60
2023-01-20T09:35:27.234Z,1.98
2023-01-20T09:38:13.972Z,1.98
2023-01-20T09:41:02.923Z,1.80
2023-01-20T09:43:52.747Z,1.98
2023-01-20T09:46:23.125Z,1.88
2023-01-20T09:49:11.073Z,1.83
2023-01-20T09:51:59.629Z,1.90
2023-01-20T09:54:30.063Z,1.73
2023-01-20T09:56:57.788Z,2.00
2023-01-20T09:59:27.734Z,1.85
2023-01-20T10:01:56.855Z,2.00
2023-01-20T10:04:25.850Z,1.90
2023-01-20T10:06:54.817Z,1.95
2023-01-20T10:09:25.518Z,1.85
2023-01-20T10:11:58.033Z,2.00
2023-01-20T10:14:29.085Z,1.90
2023-01-20T10:16:59.129Z,1.92
2023-01-20T10:19:30.547Z,1.90
2023-01-20T10:22:04.702Z,1.90
2023-01-20T10:24:33.234Z,1.88
2023-01-20T10:27:03.829Z,1.73
2023-01-20T10:29:35.439Z,2.00
2023-01-20T10:32:03.980Z,1.90
2023-01-20T10:34:35.168Z,1.90
2023-01-20T10:37:06.100Z,2.13
2023-01-20T10:39:39.482Z,1.80
2023-01-20T10:42:12.300Z,2.00
2023-01-20T10:44:39.979Z,1.92
2023-01-20T10:47:17.592Z,1.80
2023-01-20T10:50:14.207Z,1.60
2023-01-20T10:52:47.414Z,2.03
2023-01-20T10:55:21.421Z,1.80
2023-01-20T10:57:51.426Z,1.70
2023-01-20T11:00:23.422Z,1.63
2023-01-20T11:02:52.385Z,1.90
2023-01-20T11:05:21.118Z,1.60
2023-01-20T11:07:48.892Z,1.70
2023-01-20T11:10:17.608Z,1.90
2023-01-20T11:12:46.312Z,1.60
2023-01-20T11:15:20.983Z,1.70
2023-01-20T11:17:48.990Z,1.80
2023-01-20T11:20:20.319Z,1.88
2023-01-20T11:22:48.515Z,1.85
2023-01-20T11:25:23.766Z,1.77
2023-01-20T11:27:51.449Z,2.05
2023-01-20T11:30:25.678Z,1.77
2023-01-20T11:33:08.642Z,2.05
2023-01-20T11:35:36.357Z,1.60
2023-01-20T11:38:22.391Z,1.90
2023-01-20T11:40:53.157Z,1.67
2023-01-20T11:43:35.550Z,1.77
2023-01-20T11:46:21.307Z,1.77
2023-01-20T11:48:49.019Z,1.70
2023-01-20T11:51:21.388Z,1.80
2023-01-20T11:53:49.144Z,1.90
2023-01-20T11:56:19.049Z,1.60
2023-01-20T11:58:51.433Z,1.70
2023-01-20T12:01:23.756Z,1.80
2023-01-20T12:04:13.873Z,1.80
2023-01-20T12:06:47.395Z,1.63
2023-01-20T12:09:16.311Z,1.40
2023-01-20T12:11:47.344Z,1.60
2023-01-20T12:14:23.158Z,1.38
2023-01-20T12:16:56.320Z,1.50
2023-01-20T12:19:28.274Z,1.60
2023-01-20T12:21:56.115Z,1.40
2023-01-20T12:24:38.719Z,1.58
2023-01-20T12:27:11.202Z,2.78
2023-01-20T12:29:44.663Z,2.20
2023-01-20T12:32:13.902Z,2.25
2023-01-20T12:34:41.641Z,1.98
2023-01-20T12:37:13.570Z,2.92
2023-01-20T12:39:50.767Z,2.90
2023-01-20T12:42:39.867Z,2.70
2023-01-20T12:45:14.865Z,2.65
2023-01-20T12:47:50.378Z,2.28
2023-01-20T12:50:28.639Z,2.85
2023-01-20T12:53:13.015Z,7.00
2023-01-20T12:55:48.614Z,4.38
2023-01-20T12:58:21.600Z,4.13
2023-01-20T13:01:05.293Z,3.65
2023-01-20T13:04:16.709Z,3.22
2023-01-20T13:06:54.714Z,3.08
2023-01-20T13:09:30.727Z,5.20
2023-01-20T13:12:04.111Z,4.93
2023-01-20T13:14:39.218Z,4.57
2023-01-20T13:17:11.167Z,4.65
2023-01-20T13:19:41.220Z,4.22
2023-01-20T13:22:12.643Z,3.97
2023-01-20T13:24:41.033Z,4.05
2023-01-20T13:27:09.107Z,4.05
2023-01-20T13:29:44.888Z,3.70
2023-01-20T13:32:36.673Z,4.40
2023-01-20T13:35:41.473Z,3.70
2023-01-20T13:38:21.484Z,4.47
2023-01-20T13:40:51.716Z,3.53
2023-01-20T13:43:38.058Z,28.25
2023-01-20T13:46:43.007Z,45.88
2023-01-20T13:49:24.598Z,73.93
2023-01-20T13:51:53.662Z,84.07
2023-01-20T13:54:47.428Z,104.65
2023-01-20T13:57:45.332Z,108.82
2023-01-20T14:00:17.524Z,106.90
2023-01-20T14:02:45.505Z,103.68
2023-01-20T14:05:24.714Z,98.55
2023-01-20T14:07:53.849Z,93.97
2023-01-20T14:10:21.633Z,93.93
2023-01-20T14:12:49.391Z,88.90
2023-01-20T14:15:28.774Z,85.82
2023-01-20T14:17:56.754Z,83.78
2023-01-20T14:20:24.904Z,80.95
2023-01-20T14:22:54.025Z,78.70
2023-01-20T14:25:23.821Z,78.25
2023-01-20T14:27:51.598Z,73.82
2023-01-20T14:30:22.692Z,73.75
2023-01-20T14:32:50.486Z,66.70
2023-01-20T14:35:20.973Z,67.35
2023-01-20T14:37:50.478Z,65.43
2023-01-20T14:40:24.434Z,63.10
2023-01-20T14:42:59.080Z,63.70
2023-01-20T14:45:27.611Z,62.45
2023-01-20T14:47:55.344Z,55.50
2023-01-20T14:50:23.054Z,57.78
2023-01-20T14:52:50.779Z,55.58
2023-01-20T14:55:30.331Z,54.08
2023-01-20T14:57:58.005Z,54.75
2023-01-20T15:00:27.212Z,52.47
2023-01-20T15:03:10.196Z,51.58
2023-01-20T15:05:39.409Z,49.80
2023-01-20T15:08:23.725Z,49.60
2023-01-20T15:11:22.237Z,48.88
2023-01-20T15:14:09.403Z,47.45
2023-01-20T15:16:49.262Z,45.67
2023-01-20T15:19:30.208Z,46.53
2023-01-20T15:22:11.349Z,44.05
2023-01-20T15:24:39.841Z,45.00
2023-01-20T15:27:25.142Z,38.10
2023-01-20T15:30:18.704Z,39.88
2023-01-20T15:32:47.682Z,39.45
2023-01-20T15:35:15.796Z,38.67
2023-01-20T15:37:43.848Z,39.47
2023-01-20T15:40:18.726Z,38.38
2023-01-20T15:42:48.021Z,36.90
2023-01-20T15:45:16.130Z,36.92
2023-01-20T15:47:44.187Z,36.22
2023-01-20T15:50:15.466Z,35.25
2023-01-20T15:52:43.276Z,35.80
2023-01-20T15:55:13.156Z,36.55
2023-01-20T15:57:41.038Z,33.72
2023-01-20T16:00:18.836Z,34.95
2023-01-20T16:02:46.696Z,34.65
2023-01-20T16:05:17.317Z,35.28
2023-01-20T16:07:47.323Z,34.50
2023-01-20T16:10:17.192Z,33.35
2023-01-20T16:12:45.166Z,33.35
2023-01-20T16:15:17.982Z,32.13
2023-01-20T16:17:45.667Z,30.42
2023-01-20T16:20:19.853Z,33.33
2023-01-20T16:22:47.571Z,32.15
2023-01-20T16:25:15.333Z,32.45
2023-01-20T16:27:42.989Z,31.25
2023-01-20T16:30:14.538Z,31.35
2023-01-20T16:32:46.057Z,30.15
2023-01-20T16:35:14.337Z,30.27
2023-01-20T16:37:42.236Z,29.67
2023-01-20T16:40:12.736Z,29.17
2023-01-20T16:42:40.398Z,28.60
2023-01-20T16:45:16.380Z,30.27
2023-01-20T16:47:45.359Z,28.38
2023-01-20T16:50:13.434Z,28.80
2023-01-20T16:52:41.217Z,29.45
2023-01-20T16:55:10.222Z,28.27
2023-01-20T16:57:39.374Z,28.52
2023-01-20T17:00:08.438Z,27.10
2023-01-20T17:02:36.085Z,26.88
2023-01-20T17:05:06.386Z,28.08
2023-01-20T17:07:34.109Z,26.05
2023-01-20T17:10:01.761Z,26.95
2023-01-20T17:12:29.527Z,32.45
2023-01-20T17:14:57.195Z,29.33
2023-01-20T17:17:24.910Z,30.52
2023-01-20T17:19:52.547Z,27.63
2023-01-20T17:22:21.587Z,27.05
2023-01-20T17:24:49.337Z,27.15
2023-01-20T17:27:17.100Z,27.23
2023-01-20T17:29:44.861Z,26.23
2023-01-20T17:32:12.604Z,26.58
2023-01-20T17:34:40.320Z,60.65
2023-01-20T17:37:07.997Z,27.63
2023-01-20T17:39:37.227Z,30.35
2023-01-20T17:42:05.154Z,28.75
2023-01-20T17:44:32.840Z,26.10
2023-01-20T17:47:00.622Z,26.13
2023-01-20T17:49:28.269Z,26.13
2023-01-20T17:51:55.929Z,24.40
2023-01-20T17:54:23.584Z,25.73
2023-01-20T17:56:52.606Z,24.98
2023-01-20T17:59:20.260Z,22.80
2023-01-20T18:01:52.135Z,213.70
2023-01-20T18:04:19.825Z,26.90
2023-01-20T18:06:47.521Z,23.05
2023-01-20T18:09:15.573Z,23.42
2023-01-20T18:11:44.359Z,23.58
2023-01-20T18:14:13.393Z,23.15
2023-01-20T18:16:41.727Z,21.85
2023-01-20T18:19:10.393Z,22.08
2023-01-20T18:21:38.402Z,21.50
2023-01-20T18:24:08.581Z,20.63
2023-01-20T18:26:37.058Z,20.88
2023-01-20T18:29:06.073Z,21.27
2023-01-20T18:31:35.722Z,20.77
2023-01-20T18:34:05.325Z,20.83
2023-01-20T18:36:34.039Z,20.92
2023-01-20T18:39:02.451Z,19.63
2023-01-20T18:41:31.990Z,19.38
2023-01-20T18:43:59.785Z,20.05
2023-01-20T18:46:27.742Z,20.70
2023-01-20T18:48:56.874Z,19.98
2023-01-20T18:51:25.927Z,19.70
2023-01-20T18:53:57.479Z,19.60
2023-01-20T18:56:25.460Z,19.10
2023-01-20T18:58:53.615Z,19.08
2023-01-20T19:01:22.272Z,19.30
2023-01-20T19:03:50.166Z,19.27
2023-01-20T19:06:20.649Z,19.02
2023-01-20T19:08:49.052Z,18.02
2023-01-20T19:11:17.628Z,18.17
2023-01-20T19:13:45.635Z,17.67
2023-01-20T19:16:13.453Z,17.48
2023-01-20T19:18:41.280Z,19.27
2023-01-20T19:21:10.460Z,17.45
2023-01-20T19:23:39.639Z,18.08
2023-01-20T19:26:08.800Z,17.48
2023-01-20T19:28:36.734Z,16.67
2023-01-20T19:31:06.170Z,18.20
2023-01-20T19:33:34.056Z,17.55
2023-01-20T19:36:02.006Z,16.90
2023-01-20T19:38:29.711Z,18.20
2023-01-20T19:41:04.575Z,16.63
2023-01-20T19:43:32.285Z,17.02
2023-01-20T19:46:02.136Z,16.70
2023-01-20T19:48:29.817Z,17.75
2023-01-20T19:50:57.598Z,16.95
2023-01-20T19:53:25.376Z,15.90
2023-01-20T19:55:53.057Z,15.75
2023-01-20T19:58:22.036Z,16.25
2023-01-20T20:00:49.742Z,15.60
2023-01-20T20:03:17.877Z,15.82
2023-01-20T20:05:45.543Z,15.25
2023-01-20T20:08:13.188Z,15.15
2023-01-20T20:10:42.357Z,16.25
2023-01-20T20:13:10.043Z,14.73
2023-01-20T20:15:39.060Z,14.80
2023-01-20T20:18:07.120Z,14.73
2023-01-20T20:20:34.909Z,14.32
2023-01-20T20:23:02.577Z,15.23
2023-01-20T20:25:30.246Z,15.02
2023-01-20T20:27:57.937Z,14.45
2023-01-20T20:30:25.564Z,15.50
2023-01-20T20:32:54.548Z,14.40
2023-01-20T20:35:22.205Z,14.57
2023-01-20T20:37:49.888Z,14.70
2023-01-20T20:40:18.393Z,13.57
2023-01-20T20:42:46.223Z,13.80
2023-01-20T20:45:13.952Z,14.30
2023-01-20T20:47:41.595Z,14.52
2023-01-20T20:50:12.178Z,15.60
2023-01-20T20:52:39.833Z,14.50
2023-01-20T20:55:08.912Z,14.77
2023-01-20T20:57:37.433Z,14.18
2023-01-20T21:00:06.095Z,14.93
2023-01-20T21:02:34.614Z,15.38
2023-01-20T21:05:02.562Z,14.57
2023-01-20T21:07:31.556Z,14.85
2023-01-20T21:09:59.333Z,15.02
2023-01-20T21:12:27.047Z,14.60
2023-01-20T21:14:54.723Z,14.52
2023-01-20T21:17:22.384Z,15.55
2023-01-20T21:19:52.345Z,15.02
2023-01-20T21:22:20.622Z,15.38
2023-01-20T21:24:49.666Z,14.43
2023-01-20T21:27:17.320Z,14.75
2023-01-20T21:29:46.367Z,16.23
2023-01-20T21:32:14.032Z,16.58
2023-01-20T21:34:41.694Z,16.63
2023-01-20T21:37:09.361Z,15.77
2023-01-20T21:39:37.038Z,16.58
2023-01-20T21:42:07.449Z,16.38
2023-01-20T21:44:36.303Z,16.98
2023-01-20T21:47:05.079Z,17.88
2023-01-20T21:49:50.477Z,17.23
2023-01-20T21:52:36.763Z,17.58
2023-01-20T21:55:05.057Z,18.58
2023-01-20T21:57:34.116Z,17.95
2023-01-20T22:00:01.942Z,19.13
2023-01-20T22:02:39.533Z,18.50
2023-01-20T22:05:07.642Z,18.58
2023-01-20T22:07:35.485Z,18.17
2023-01-20T22:10:03.150Z,18.40
2023-01-20T22:12:34.446Z,18.50
2023-01-20T22:15:04.227Z,18.70
2023-01-20T22:17:32.389Z,19.38
2023-01-20T22:20:00.102Z,17.52
2023-01-20T22:22:27.776Z,18.92
2023-01-20T22:24:55.454Z,17.98
2023-01-20T22:27:23.145Z,18.13
2023-01-20T22:29:50.805Z,18.13
2023-01-20T22:32:19.764Z,17.65
2023-01-20T22:34:47.413Z,18.33
2023-01-20T22:37:15.047Z,17.73
2023-01-20T22:39:42.704Z,18.00
2023-01-20T22:42:10.385Z,18.48
2023-01-20T22:44:38.044Z,18.23
2023-01-20T22:47:09.658Z,17.98
2023-01-20T22:49:38.678Z,18.20
2023-01-20T22:52:06.598Z,18.52
2023-01-20T22:54:34.261Z,17.65
2023-01-20T22:57:01.906Z,17.30
2023-01-20T22:59:29.799Z,17.45
2023-01-20T23:01:57.553Z,18.00
2023-01-20T23:04:25.419Z,17.33
2023-01-20T23:06:54.439Z,17.38
2023-01-20T23:09:22.096Z,17.73
2023-01-20T23:11:49.864Z,17.15
2023-01-20T23:14:17.504Z,17.77
2023-01-20T23:16:45.196Z,17.13
2023-01-20T23:19:12.918Z,16.60
2023-01-20T23:21:40.595Z,16.85
2023-01-20T23:24:10.079Z,17.10
2023-01-20T23:26:37.757Z,16.60
2023-01-20T23:29:05.465Z,17.27
2023-01-20T23:31:35.074Z,16.80
2023-01-20T23:34:02.777Z,16.50
2023-01-20T23:36:30.443Z,17.42
2023-01-20T23:38:58.128Z,17.02
2023-01-20T23:41:27.140Z,16.98
2023-01-20T23:43:54.808Z,17.33
2023-01-20T23:46:22.585Z,17.35
2023-01-20T23:48:50.292Z,17.00
2023-01-20T23:51:18.176Z,16.85
2023-01-20T23:53:45.862Z,17.95
2023-01-20T23:56:14.741Z,17.73
2023-01-20T23:58:44.101Z,18.20
